Time;durP1;ratioP1;P1;durP2;ratioP2;P2;SDS_P1;SDS_P2;PMS_P1;PMS_P2;Temp;Humidity;BMP_temperature;BMP_pressure;BME280_temperature;BME280_humidity;BME280_pressure;Samples;Min_cycle;Max_cycle;Signal;HPM_P1;HPM_P2
2021/11/29 00:01:08;;;;;;;7.93;7.13;;;;;;;3.40;80.60;93810.56;4975405;28;20223;-83
2021/11/29 00:03:36;;;;;;;7.70;6.90;;;;;;;3.41;80.23;93812.13;4975038;28;20221;-83
2021/11/29 00:06:03;;;;;;;8.10;7.00;;;;;;;3.44;80.71;93819.41;4975321;28;20219;-83
2021/11/29 00:08:30;;;;;;;8.23;7.37;;;;;;;3.46;80.77;93820.03;4974324;28;20227;-84
2021/11/29 00:10:56;;;;;;;8.43;7.20;;;;;;;3.43;81.09;93831.34;4974529;28;20601;-82
2021/11/29 00:13:23;;;;;;;7.63;6.77;;;;;;;3.44;80.93;93829.59;4975230;28;20242;-82
2021/11/29 00:15:49;;;;;;;7.57;6.77;;;;;;;3.44;80.82;93827.03;4974274;28;20204;-83
2021/11/29 00:18:16;;;;;;;7.80;6.97;;;;;;;3.46;80.68;93828.41;4975090;28;20310;-81
2021/11/29 00:20:44;;;;;;;8.43;7.57;;;;;;;3.48;80.62;93831.59;4974982;28;20209;-81
2021/11/29 00:23:12;;;;;;;8.20;7.40;;;;;;;3.46;80.42;93825.88;4974271;28;20247;-83
2021/11/29 00:25:39;;;;;;;8.53;7.63;;;;;;;3.47;80.93;93831.75;4974302;28;20602;-80
2021/11/29 00:28:08;;;;;;;8.10;7.30;;;;;;;3.50;80.74;93838.25;4974760;28;20766;-83
2021/11/29 00:30:35;;;;;;;9.27;7.57;;;;;;;3.48;80.43;93836.66;4974777;28;20581;-83
2021/11/29 00:33:01;;;;;;;8.43;7.60;;;;;;;3.48;80.56;93841.75;4974386;28;20224;-83
2021/11/29 00:35:27;;;;;;;8.77;7.87;;;;;;;3.46;80.58;93840.38;4974735;28;20606;-83
2021/11/29 00:37:55;;;;;;;9.73;7.93;;;;;;;3.48;80.63;93844.31;4978164;28;20228;-83
2021/11/29 00:40:23;;;;;;;10.17;8.07;;;;;;;3.50;81.14;93851.75;4978488;28;20252;-84
2021/11/29 00:42:49;;;;;;;10.77;8.07;;;;;;;3.51;80.90;93853.34;4976590;28;20231;-84
2021/11/29 00:45:16;;;;;;;9.63;8.63;;;;;;;3.46;81.29;93851.31;4978268;28;20203;-83
2021/11/29 00:47:42;;;;;;;10.37;8.80;;;;;;;3.42;80.92;93851.88;4978348;28;20231;-83
2021/11/29 00:50:13;;;;;;;10.07;9.07;;;;;;;3.39;81.73;93854.75;4978310;28;20208;-84
2021/11/29 00:52:40;;;;;;;9.80;8.50;;;;;;;3.41;81.78;93852.81;4977938;28;20234;-83
2021/11/29 00:55:09;;;;;;;9.93;8.70;;;;;;;3.44;81.78;93860.91;4978917;28;20214;-83
2021/11/29 00:57:36;;;;;;;11.70;8.57;;;;;;;3.50;81.42;93859.38;4977919;28;20236;-83
2021/11/29 01:00:04;;;;;;;10.33;8.30;;;;;;;3.48;81.83;93869.75;4978303;28;20223;-83
2021/11/29 01:02:30;;;;;;;9.70;8.70;;;;;;;3.52;81.69;93861.75;4977786;28;20219;-82
2021/11/29 01:04:57;;;;;;;9.83;8.37;;;;;;;3.54;81.43;93864.91;4977307;28;20202;-84
2021/11/29 01:07:23;;;;;;;11.07;8.67;;;;;;;3.48;81.61;93869.75;4977445;28;20219;-84
2021/11/29 01:09:50;;;;;;;9.53;8.53;;;;;;;3.47;81.87;93863.06;4977337;28;20263;-81
2021/11/29 01:12:18;;;;;;;9.80;8.57;;;;;;;3.44;81.93;93873.63;4977779;28;20789;-85
2021/11/29 01:14:44;;;;;;;9.43;8.43;;;;;;;3.44;81.94;93876.16;4977800;28;20200;-83
2021/11/29 01:17:11;;;;;;;9.20;8.30;;;;;;;3.46;81.90;93873.44;4977824;28;20579;-82
2021/11/29 01:19:38;;;;;;;9.70;8.70;;;;;;;3.39;81.19;93865.72;4977187;28;20238;-81
2021/11/29 01:22:05;;;;;;;9.50;8.47;;;;;;;3.40;81.79;93869.84;4977886;28;20232;-82
2021/11/29 01:24:32;;;;;;;9.33;8.33;;;;;;;3.42;81.86;93874.75;4977742;28;20200;-84
2021/11/29 01:26:58;;;;;;;9.47;8.47;;;;;;;3.44;81.76;93875.38;4978182;28;20203;-84
2021/11/29 01:29:28;;;;;;;9.33;8.40;;;;;;;3.42;81.28;93867.13;4976974;28;20232;-83
2021/11/29 01:31:54;;;;;;;11.23;8.90;;;;;;;3.37;81.48;93869.41;4978481;28;20255;-84
2021/11/29 01:34:21;;;;;;;9.33;8.43;;;;;;;3.39;81.37;93875.09;4977933;28;20203;-83
2021/11/29 01:36:47;;;;;;;11.50;8.63;;;;;;;3.41;81.36;93868.88;4978029;28;20207;-84
2021/11/29 01:39:14;;;;;;;10.20;8.57;;;;;;;3.41;81.46;93871.41;4977804;28;20228;-84
2021/11/29 01:41:42;;;;;;;10.57;9.00;;;;;;;3.39;81.82;93872.56;4977706;28;20260;-84
2021/11/29 01:44:08;;;;;;;9.53;7.83;;;;;;;3.41;81.40;93873.19;4977696;28;20220;-85
2021/11/29 01:46:36;;;;;;;9.97;8.87;;;;;;;3.42;81.52;93874.75;4978491;28;20200;-84
2021/11/29 01:49:03;;;;;;;11.00;8.17;;;;;;;3.39;81.23;93878.44;4977279;28;20224;-84
2021/11/29 01:51:30;;;;;;;9.57;8.57;;;;;;;3.43;80.98;93883.97;4978156;28;20204;-84
2021/11/29 01:53:56;;;;;;;8.47;7.43;;;;;;;3.42;81.27;93887.47;4977573;28;20855;-84
2021/11/29 01:56:22;;;;;;;9.50;7.97;;;;;;;3.46;81.02;93893.78;4977736;28;20212;-84
2021/11/29 01:58:49;;;;;;;9.13;8.03;;;;;;;3.42;81.09;93884.94;4976839;28;20224;-84
2021/11/29 02:01:18;;;;;;;9.90;8.80;;;;;;;3.43;81.48;93892.38;4977587;28;20252;-85
2021/11/29 02:03:48;;;;;;;9.63;8.63;;;;;;;3.45;81.21;93889.66;4977436;28;20224;-82
2021/11/29 02:06:16;;;;;;;10.10;8.50;;;;;;;3.38;82.31;93893.88;4978359;28;20289;-84
2021/11/29 02:08:42;;;;;;;8.70;7.80;;;;;;;3.38;82.02;93893.88;4976437;28;20657;-83
2021/11/29 02:11:09;;;;;;;11.10;8.50;;;;;;;3.34;82.61;93905.34;4977631;28;20255;-84
2021/11/29 02:13:36;;;;;;;10.27;9.17;;;;;;;3.29;82.58;93900.78;4976486;28;20223;-85
2021/11/29 02:16:04;;;;;;;10.90;8.60;;;;;;;3.30;82.18;93906.66;4977049;28;20196;-82
2021/11/29 02:18:33;;;;;;;9.83;8.60;;;;;;;3.32;81.82;93914.91;4976856;28;20294;-85
2021/11/29 02:21:05;;;;;;;9.20;8.13;;;;;;;3.35;81.81;93909.47;4976948;28;20707;-84
2021/11/29 02:23:33;;;;;;;9.20;8.20;;;;;;;3.34;81.38;93913.75;4976645;28;20235;-84
2021/11/29 02:26:00;;;;;;;10.30;8.63;;;;;;;3.34;81.71;93910.44;4976987;28;20715;-84
2021/11/29 02:28:27;;;;;;;9.17;8.27;;;;;;;3.34;81.65;93910.44;4976063;28;20299;-85
2021/11/29 02:30:53;;;;;;;10.17;9.17;;;;;;;3.31;81.39;93909.03;4977124;28;20214;-82
2021/11/29 02:33:20;;;;;;;9.27;8.37;;;;;;;3.27;81.69;93912.09;4976798;28;20219;-82
2021/11/29 02:35:46;;;;;;;12.83;9.67;;;;;;;3.27;81.42;93912.09;4976211;28;20588;-82
2021/11/29 02:38:14;;;;;;;10.33;9.23;;;;;;;3.29;81.27;93916.03;4976173;28;20728;-81
2021/11/29 02:40:41;;;;;;;11.57;9.73;;;;;;;3.24;81.26;93931.03;4976347;28;20216;-82
2021/11/29 02:43:07;;;;;;;9.57;8.53;;;;;;;3.24;81.35;93925.16;4975756;28;20223;-83
2021/11/29 02:45:34;;;;;;;10.40;9.20;;;;;;;3.25;81.31;93930.06;4976874;28;20200;-82
2021/11/29 02:48:01;;;;;;;10.97;9.27;;;;;;;3.25;81.41;93932.63;4976392;28;20227;-85
2021/11/29 02:50:27;;;;;;;10.07;9.07;;;;;;;3.25;81.40;93926.75;4976911;28;20207;-84
2021/11/29 02:52:55;;;;;;;10.43;9.33;;;;;;;3.25;81.57;93935.16;4976426;28;20220;-84
2021/11/29 02:55:23;;;;;;;13.27;9.50;;;;;;;3.30;81.54;93935.41;4976993;28;20636;-81
2021/11/29 02:57:49;;;;;;;10.43;9.33;;;;;;;3.26;81.75;93936.75;4975926;28;20235;-84
2021/11/29 03:00:16;;;;;;;11.33;9.10;;;;;;;3.19;82.38;93951.09;4975406;28;20207;-83
2021/11/29 03:02:42;;;;;;;11.03;9.93;;;;;;;3.21;82.33;93951.72;4975626;28;20233;-84
2021/11/29 03:05:09;;;;;;;10.53;9.43;;;;;;;3.23;81.84;93951.56;4975904;28;20211;-83
2021/11/29 03:07:35;;;;;;;11.77;9.70;;;;;;;3.15;82.45;93952.41;4976359;28;20196;-83
2021/11/29 03:10:02;;;;;;;10.97;9.73;;;;;;;3.13;82.29;93952.56;4975850;28;20606;-82
2021/11/29 03:12:29;;;;;;;11.50;10.07;;;;;;;3.15;82.36;93956.69;4975159;28;20588;-81
2021/11/29 03:14:56;;;;;;;10.67;9.27;;;;;;;3.15;82.13;93957.47;4975876;28;20781;-82
2021/11/29 03:17:22;;;;;;;12.87;10.43;;;;;;;3.20;81.91;93951.88;4975644;28;20200;-84
2021/11/29 03:19:49;;;;;;;11.93;10.27;;;;;;;3.22;81.18;93957.59;4976358;28;20251;-84
2021/11/29 03:22:15;;;;;;;11.13;9.77;;;;;;;3.22;81.19;93970.31;4976971;28;20232;-83
2021/11/29 03:24:45;;;;;;;12.93;10.27;;;;;;;3.17;81.13;93965.72;4976074;28;20231;-84
2021/11/29 03:27:11;;;;;;;11.90;10.07;;;;;;;3.21;81.55;93968.72;4975307;28;20238;-82
2021/11/29 03:29:39;;;;;;;12.07;10.80;;;;;;;3.22;81.80;93972.84;4975673;28;20224;-84
2021/11/29 03:32:08;;;;;;;12.07;10.77;;;;;;;3.18;82.05;93976.69;4976194;28;20647;-84
2021/11/29 03:34:35;;;;;;;11.67;10.30;;;;;;;3.15;81.86;93977.03;4976117;28;20263;-84
2021/11/29 03:37:01;;;;;;;12.07;10.63;;;;;;;3.14;81.93;93981.31;4975796;28;20216;-83
2021/11/29 03:39:29;;;;;;;13.63;11.47;;;;;;;3.11;81.54;93982.44;4975503;28;20262;-84
2021/11/29 03:41:58;;;;;;;13.77;11.50;;;;;;;3.16;81.75;93983.69;4975480;28;20228;-84
2021/11/29 03:44:25;;;;;;;14.27;11.63;;;;;;;3.03;82.04;93989.34;4975313;28;20707;-84
2021/11/29 03:46:55;;;;;;;14.87;11.80;;;;;;;3.00;82.34;93982.06;4976178;28;20205;-83
2021/11/29 03:49:22;;;;;;;13.50;11.30;;;;;;;3.05;82.27;93978.06;4975171;28;20236;-85
2021/11/29 03:51:48;;;;;;;12.90;10.97;;;;;;;3.08;82.09;93987.06;4975432;28;20284;-85
2021/11/29 03:54:17;;;;;;;13.07;11.63;;;;;;;3.13;81.92;93982.28;4975386;28;20224;-85
2021/11/29 03:56:43;;;;;;;12.77;11.00;;;;;;;3.13;80.66;93985.63;4975431;28;20215;-84
2021/11/29 03:59:10;;;;;;;14.43;11.53;;;;;;;3.11;80.99;93986.75;4975036;28;20232;-83
2021/11/29 04:01:36;;;;;;;14.40;12.27;;;;;;;3.08;81.20;93987.06;4975206;28;20216;-82
2021/11/29 04:04:05;;;;;;;18.43;15.87;;;;;;;3.09;81.04;93984.38;4974938;28;20283;-82
2021/11/29 04:06:32;;;;;;;27.17;21.13;;;;;;;3.08;81.62;93989.63;4974503;28;20196;-82
2021/11/29 04:08:59;;;;;;;18.33;14.37;;;;;;;3.05;81.51;93987.44;4975536;28;20238;-82
2021/11/29 04:11:25;;;;;;;14.77;12.60;;;;;;;3.09;81.12;93994.53;4975541;28;20799;-84
2021/11/29 04:13:51;;;;;;;13.30;11.90;;;;;;;3.09;81.00;93999.63;4975938;28;20322;-81
2021/11/29 04:16:18;;;;;;;13.90;12.20;;;;;;;3.07;80.90;93998.25;4974973;28;20200;-83
2021/11/29 04:18:46;;;;;;;14.40;11.50;;;;;;;3.08;81.01;94000.56;4974786;28;20239;-81
2021/11/29 04:21:15;;;;;;;14.60;12.20;;;;;;;3.08;81.15;94008.22;4975240;28;20275;-83
2021/11/29 04:23:44;;;;;;;13.20;11.17;;;;;;;3.07;80.69;94011.75;4975748;28;20278;-83
2021/11/29 04:26:12;;;;;;;14.40;11.63;;;;;;;3.11;81.15;94009.63;4975100;28;20238;-84
2021/11/29 04:28:39;;;;;;;12.97;11.57;;;;;;;3.07;80.69;94011.75;4974060;28;20224;-82
2021/11/29 04:31:05;;;;;;;13.73;12.10;;;;;;;3.00;81.33;94015.91;4975577;28;20235;-85
2021/11/29 04:33:32;;;;;;;14.07;11.97;;;;;;;2.99;81.26;94019.41;4974543;28;20227;-81
2021/11/29 04:35:59;;;;;;;14.67;12.00;;;;;;;3.00;81.34;94017.66;4975537;28;20254;-82
2021/11/29 04:38:27;;;;;;;14.73;11.90;;;;;;;2.98;81.59;94028.00;4974513;28;20231;-83
2021/11/29 04:40:53;;;;;;;13.20;11.70;;;;;;;2.98;81.22;94022.91;4974604;28;20200;-84
2021/11/29 04:43:20;;;;;;;14.97;12.83;;;;;;;2.98;82.06;94022.13;4974534;28;20271;-84
2021/11/29 04:45:46;;;;;;;15.10;12.80;;;;;;;3.01;81.67;94027.66;4974663;28;20192;-84
2021/11/29 04:48:13;;;;;;;14.87;12.17;;;;;;;3.06;81.57;94035.56;4974104;28;20231;-84
2021/11/29 04:50:40;;;;;;;14.03;12.07;;;;;;;3.04;81.27;94039.25;4974365;28;20211;-84
2021/11/29 04:53:07;;;;;;;14.00;12.27;;;;;;;3.04;80.88;94047.66;4975175;28;20288;-83
2021/11/29 04:55:35;;;;;;;13.97;12.43;;;;;;;3.02;81.30;94043.69;4974446;28;20687;-84
2021/11/29 04:58:01;;;;;;;15.30;12.57;;;;;;;3.06;81.32;94043.19;4973844;28;20757;-85
2021/11/29 05:00:28;;;;;;;14.70;11.80;;;;;;;3.01;81.62;94050.53;4973753;28;20207;-86
2021/11/29 05:02:54;;;;;;;16.03;13.07;;;;;;;2.95;81.42;94056.28;4973741;28;20262;-83
2021/11/29 05:05:21;;;;;;;14.03;12.50;;;;;;;2.98;81.87;94062.78;4973992;28;20216;-85
2021/11/29 05:07:47;;;;;;;14.60;12.60;;;;;;;2.92;81.86;94064.22;4974220;28;20254;-83
2021/11/29 05:10:15;;;;;;;15.00;12.87;;;;;;;2.97;81.42;94063.75;4974337;28;20204;-84
2021/11/29 05:12:42;;;;;;;13.80;11.67;;;;;;;2.99;81.49;94067.69;4971897;28;20217;-83
2021/11/29 05:15:10;;;;;;;14.70;12.20;;;;;;;2.98;81.50;94067.88;4967787;28;20227;-82
2021/11/29 05:17:36;;;;;;;13.63;11.87;;;;;;;2.96;81.58;94079.94;4975186;28;20778;-83
2021/11/29 05:20:04;;;;;;;13.07;11.03;;;;;;;2.95;81.92;94086.00;4975761;28;20295;-81
2021/11/29 05:22:31;;;;;;;18.27;12.63;;;;;;;2.94;82.51;94085.19;4974469;28;20294;-83
2021/11/29 05:24:57;;;;;;;14.27;12.00;;;;;;;2.99;81.86;94088.03;4969473;28;20200;-83
2021/11/29 05:27:24;;;;;;;13.93;12.27;;;;;;;2.94;82.01;94092.03;4970047;28;20211;-84
2021/11/29 05:29:51;;;;;;;14.03;11.00;;;;;;;3.00;82.11;94081.19;4977231;28;20216;-83
2021/11/29 05:32:18;;;;;;;12.50;11.20;;;;;;;2.96;81.51;94093.44;4977454;28;20215;-84
2021/11/29 05:34:44;;;;;;;12.77;11.13;;;;;;;2.93;81.64;94095.53;4977173;28;20203;-82
2021/11/29 05:37:11;;;;;;;12.40;11.10;;;;;;;2.90;81.51;94095.84;4976691;28;20204;-84
2021/11/29 05:39:37;;;;;;;12.30;10.97;;;;;;;2.93;81.25;94106.50;4973478;28;20235;-84
2021/11/29 05:42:04;;;;;;;13.10;11.57;;;;;;;2.95;81.26;94112.19;4969689;28;20232;-84
2021/11/29 05:44:30;;;;;;;12.67;10.73;;;;;;;2.95;81.07;94112.19;4976242;28;20200;-83
2021/11/29 05:46:58;;;;;;;13.60;10.77;;;;;;;2.98;81.27;94128.88;4973371;28;20200;-85
2021/11/29 05:49:25;;;;;;;12.63;10.73;;;;;;;2.98;81.05;94126.34;4974188;28;20235;-84
2021/11/29 05:51:53;;;;;;;14.57;11.10;;;;;;;3.00;80.68;94132.84;4975269;28;20211;-86
2021/11/29 05:54:19;;;;;;;11.70;10.50;;;;;;;3.02;81.17;94135.22;4977475;28;20579;-85
2021/11/29 05:56:45;;;;;;;12.97;11.03;;;;;;;2.97;80.79;94147.63;4977431;28;20250;-84
2021/11/29 05:59:12;;;;;;;11.73;10.30;;;;;;;2.95;81.96;94147.78;4976595;28;20239;-85
2021/11/29 06:01:38;;;;;;;12.10;10.37;;;;;;;2.99;81.36;94151.59;4977742;28;20236;-85
2021/11/29 06:04:06;;;;;;;11.17;9.87;;;;;;;2.99;81.64;94154.13;4973343;28;20228;-84
2021/11/29 06:06:33;;;;;;;11.73;10.43;;;;;;;2.96;80.79;94153.66;4972400;28;20218;-86
2021/11/29 06:09:00;;;;;;;13.53;11.57;;;;;;;2.94;81.15;94163.19;4976272;28;20228;-85
2021/11/29 06:11:26;;;;;;;11.60;10.40;;;;;;;2.99;81.13;94166.84;4975807;28;20247;-85
2021/11/29 06:13:53;;;;;;;12.13;10.77;;;;;;;2.98;81.38;94172.88;4976146;28;20685;-85
2021/11/29 06:16:19;;;;;;;11.77;9.93;;;;;;;3.01;81.55;94166.69;4971550;28;20626;-85
2021/11/29 06:18:46;;;;;;;13.70;10.73;;;;;;;2.98;81.10;94164.47;4975754;28;20232;-85
2021/11/29 06:21:13;;;;;;;11.90;10.50;;;;;;;2.91;82.15;94171.94;4976104;28;20200;-85
2021/11/29 06:23:40;;;;;;;13.67;10.23;;;;;;;2.82;82.75;94179.78;4976872;28;20238;-84
2021/11/29 06:26:06;;;;;;;15.83;10.67;;;;;;;2.78;82.84;94181.84;4970016;28;20212;-84
2021/11/29 06:28:33;;;;;;;14.37;11.23;;;;;;;2.79;82.60;94191.06;4976004;28;20236;-85
2021/11/29 06:30:59;;;;;;;12.77;10.57;;;;;;;2.85;82.16;94192.94;4977209;28;20196;-84
2021/11/29 06:33:26;;;;;;;11.57;10.37;;;;;;;2.90;81.86;94207.69;4976308;28;20215;-85
2021/11/29 06:35:54;;;;;;;11.67;10.40;;;;;;;2.96;84.46;94205.28;4975490;28;20687;-83
2021/11/29 06:38:22;;;;;;;32.60;24.77;;;;;;;3.02;82.21;94216.56;4972571;28;20704;-85
2021/11/29 06:40:50;;;;;;;20.77;16.37;;;;;;;3.03;81.03;94218.94;4971678;28;20683;-84
2021/11/29 06:43:17;;;;;;;13.00;11.07;;;;;;;3.04;80.50;94215.44;4977205;28;20601;-85
2021/11/29 06:45:44;;;;;;;11.40;10.20;;;;;;;3.05;80.79;94227.19;4977289;28;20211;-83
2021/11/29 06:48:11;;;;;;;14.43;10.13;;;;;;;3.02;80.90;94229.28;4976135;28;20590;-86
2021/11/29 06:50:37;;;;;;;12.27;10.00;;;;;;;3.02;80.75;94224.97;4975189;28;20251;-84
2021/11/29 06:53:04;;;;;;;12.63;10.97;;;;;;;3.03;80.66;94228.31;4977214;28;20216;-85
2021/11/29 06:55:33;;;;;;;12.13;10.93;;;;;;;2.99;81.40;94227.06;4976730;28;20227;-85
2021/11/29 06:57:59;;;;;;;11.57;10.33;;;;;;;2.95;81.02;94235.97;4976399;28;20679;-85
2021/11/29 07:00:26;;;;;;;12.97;10.50;;;;;;;2.96;81.45;94238.34;4973826;28;20574;-85
2021/11/29 07:02:54;;;;;;;13.10;10.03;;;;;;;2.93;81.04;94240.41;4972762;28;20238;-85
2021/11/29 07:05:20;;;;;;;11.67;10.00;;;;;;;2.94;81.46;94250.41;4974106;28;20208;-85
2021/11/29 07:07:49;;;;;;;13.13;10.60;;;;;;;2.99;81.06;94249.94;4975253;28;20242;-85
2021/11/29 07:10:16;;;;;;;11.70;10.37;;;;;;;3.01;81.42;94253.09;4973865;28;20942;-84
2021/11/29 07:12:45;;;;;;;12.60;10.17;;;;;;;3.01;81.76;94261.53;4977119;28;20300;-84
2021/11/29 07:15:12;;;;;;;11.43;10.13;;;;;;;3.02;81.52;94260.56;4969093;28;20290;-85
2021/11/29 07:17:39;;;;;;;37.30;27.33;;;;;;;3.01;81.11;94260.72;4975597;28;20228;-86
2021/11/29 07:20:07;;;;;;;16.50;13.47;;;;;;;3.03;81.43;94264.69;4977070;28;20224;-86
2021/11/29 07:22:33;;;;;;;12.27;10.90;;;;;;;3.04;81.27;94271.38;4980113;28;20519;-86
2021/11/29 07:25:02;;;;;;;12.63;10.90;;;;;;;3.04;81.46;94270.59;4979267;28;20258;-86
2021/11/29 07:27:29;;;;;;;12.53;11.03;;;;;;;3.04;81.53;94281.53;4978689;28;20212;-86
2021/11/29 07:29:57;;;;;;;12.77;11.30;;;;;;;3.05;81.39;94279.78;4960595;28;20231;-85
2021/11/29 07:32:23;;;;;;;11.80;10.60;;;;;;;3.10;81.79;94282.63;4977314;28;20561;-86
2021/11/29 07:34:50;;;;;;;12.93;10.77;;;;;;;3.15;81.52;94282.16;4973778;28;20208;-86
2021/11/29 07:37:19;;;;;;;13.57;11.27;;;;;;;3.17;80.96;94288.66;4976655;28;20208;-86
2021/11/29 07:39:46;;;;;;;13.83;11.17;;;;;;;3.16;82.04;94292.16;4976069;28;20204;-85
2021/11/29 07:42:13;;;;;;;12.30;11.10;;;;;;;3.10;81.69;94295.34;4973511;28;20228;-86
2021/11/29 07:44:40;;;;;;;12.33;10.77;;;;;;;3.08;82.05;94297.25;4974938;28;20706;-84
2021/11/29 07:47:09;;;;;;;13.17;11.33;;;;;;;3.06;81.92;94304.28;4961066;28;20703;-83
2021/11/29 07:49:35;;;;;;;13.83;11.87;;;;;;;2.96;82.73;94306.19;4970841;28;20229;-84
2021/11/29 07:52:02;;;;;;;13.27;11.73;;;;;;;3.04;86.69;94308.72;4956155;29;20207;-83
2021/11/29 07:54:28;;;;;;;13.07;11.67;;;;;;;3.03;83.99;94314.75;4970632;28;20196;-85
2021/11/29 07:56:55;;;;;;;14.17;12.40;;;;;;;3.04;83.53;94318.88;4956561;29;20197;-84
2021/11/29 07:59:21;;;;;;;14.17;11.73;;;;;;;3.06;83.73;94322.84;4956115;29;20201;-84
2021/11/29 08:01:48;;;;;;;13.20;11.77;;;;;;;3.06;83.48;94332.22;4959952;28;20211;-85
2021/11/29 08:04:16;;;;;;;13.10;11.70;;;;;;;3.04;84.14;94331.59;4975057;28;20328;-85
2021/11/29 08:06:42;;;;;;;15.87;12.23;;;;;;;3.06;84.46;94329.69;4975575;28;20196;-85
2021/11/29 08:09:09;;;;;;;14.13;12.60;;;;;;;3.08;84.10;94338.72;4966573;28;20201;-85
2021/11/29 08:11:35;;;;;;;12.97;11.57;;;;;;;3.04;84.04;94341.75;4972030;28;20200;-85
2021/11/29 08:14:02;;;;;;;13.87;12.27;;;;;;;3.01;84.51;94347.97;4974118;28;20220;-85
2021/11/29 08:16:29;;;;;;;13.97;12.40;;;;;;;3.09;84.46;94347.94;4973883;28;20239;-85
2021/11/29 08:18:57;;;;;;;12.97;11.67;;;;;;;3.12;83.96;94354.44;4975473;28;20664;-85
2021/11/29 08:21:26;;;;;;;13.73;11.43;;;;;;;3.17;83.74;94352.22;4975429;28;20292;-85
2021/11/29 08:23:53;;;;;;;13.17;11.37;;;;;;;3.12;85.28;94354.44;4959850;28;20225;-86
2021/11/29 08:26:19;;;;;;;11.53;10.33;;;;;;;3.10;84.62;94363.97;4956598;28;20205;-84
2021/11/29 08:28:46;;;;;;;13.00;11.53;;;;;;;3.12;84.75;94373.03;4974080;28;20743;-85
2021/11/29 08:31:12;;;;;;;12.57;11.27;;;;;;;3.08;84.46;94365.88;4974256;28;20208;-85
2021/11/29 08:33:39;;;;;;;12.17;10.83;;;;;;;3.18;84.29;94375.91;4974735;28;20224;-85
2021/11/29 08:36:05;;;;;;;13.27;11.10;;;;;;;3.22;83.56;94377.97;4967327;28;20232;-85
2021/11/29 08:38:34;;;;;;;12.73;11.43;;;;;;;3.29;83.27;94378.91;4969691;28;20200;-85
2021/11/29 08:41:00;;;;;;;24.57;19.93;;;;;;;3.16;84.71;94391.31;4972867;28;20204;-84
2021/11/29 08:43:27;;;;;;;20.63;15.63;;;;;;;3.22;83.28;94394.97;4988198;28;20220;-85
2021/11/29 08:45:54;;;;;;;14.03;11.07;;;;;;;3.21;82.30;94399.28;4973308;28;20235;-85
2021/11/29 08:48:21;;;;;;;13.43;10.43;;;;;;;3.21;82.58;94393.38;4974237;28;20200;-84
2021/11/29 08:50:49;;;;;;;11.43;10.00;;;;;;;3.30;81.95;94402.59;4975018;28;20287;-84
2021/11/29 08:53:19;;;;;;;12.23;10.40;;;;;;;3.34;81.80;94407.19;4973347;28;20220;-83
2021/11/29 08:55:47;;;;;;;10.53;9.03;;;;;;;3.45;81.21;94411.16;4972786;28;20235;-84
2021/11/29 08:58:16;;;;;;;11.77;10.53;;;;;;;3.39;80.82;94414.34;4974605;28;20219;-84
2021/11/29 09:00:48;;;;;;;12.17;10.17;;;;;;;3.36;80.46;94425.63;4977254;28;20200;-83
2021/11/29 09:03:15;;;;;;;10.97;9.77;;;;;;;3.42;80.86;94427.53;4975653;28;20227;-83
2021/11/29 09:05:43;;;;;;;12.80;9.77;;;;;;;3.50;80.51;94429.25;4976365;28;20236;-84
2021/11/29 09:08:12;;;;;;;11.73;10.30;;;;;;;3.61;79.55;94435.78;4977565;28;20211;-84
2021/11/29 09:10:40;;;;;;;12.63;9.77;;;;;;;3.66;79.19;94436.88;4977668;28;20243;-83
2021/11/29 09:13:08;;;;;;;10.67;9.47;;;;;;;3.72;79.25;94441.31;4975864;28;20231;-85
2021/11/29 09:15:37;;;;;;;11.90;9.10;;;;;;;3.76;78.76;94446.88;4976368;28;20406;-85
2021/11/29 09:18:05;;;;;;;11.57;9.33;;;;;;;3.74;77.39;94441.94;4981156;28;20208;-84
2021/11/29 09:20:32;;;;;;;11.60;9.70;;;;;;;3.78;77.15;94444.97;4987828;28;20195;-85
2021/11/29 09:23:01;;;;;;;11.83;8.27;;;;;;;4.37;100.00;94443.66;4977803;28;20232;-86
2021/11/29 09:25:27;;;;;;;12.70;8.27;;;;;;;5.06;96.60;94443.69;4974808;28;20216;-83
2021/11/29 09:27:56;;;;;;;10.67;9.47;;;;;;;5.10;76.65;94450.06;4976984;28;20214;-85
2021/11/29 09:30:23;;;;;;;10.83;9.57;;;;;;;4.73;74.13;94454.13;4976917;28;20224;-83
2021/11/29 09:32:53;;;;;;;11.30;9.97;;;;;;;4.43;73.80;94453.16;4979185;28;20216;-86
2021/11/29 09:35:21;;;;;;;11.50;10.30;;;;;;;4.21;74.31;94448.81;4979093;28;20600;-84
2021/11/29 09:37:48;;;;;;;11.27;10.07;;;;;;;4.13;74.83;94454.72;4978332;28;20306;-85
2021/11/29 09:40:19;;;;;;;11.97;10.10;;;;;;;4.06;75.56;94448.69;4978663;28;20232;-85
2021/11/29 09:42:46;;;;;;;11.33;10.10;;;;;;;4.01;75.57;94450.97;4973192;28;20650;-85
2021/11/29 09:45:14;;;;;;;11.87;9.67;;;;;;;4.06;75.75;94448.69;4970057;28;20219;-84
2021/11/29 09:47:43;;;;;;;39.17;29.73;;;;;;;3.91;75.88;94450.34;4997488;28;20227;-85
2021/11/29 09:50:11;;;;;;;12.90;11.53;;;;;;;3.76;75.60;94451.97;4993850;28;20196;-82
2021/11/29 09:52:38;;;;;;;12.40;10.83;;;;;;;3.70;76.90;94455.94;4977492;28;20231;-84
2021/11/29 09:55:08;;;;;;;12.00;10.80;;;;;;;3.74;76.61;94452.13;4976885;28;20590;-85
2021/11/29 09:57:42;;;;;;;12.40;10.73;;;;;;;3.73;77.37;94453.09;4976433;28;20227;-85
2021/11/29 10:00:12;;;;;;;11.87;10.60;;;;;;;3.72;75.87;94454.03;4977083;28;20199;-85
2021/11/29 10:02:38;;;;;;;11.33;9.90;;;;;;;3.82;77.07;94453.88;4975772;28;20239;-82
2021/11/29 10:05:07;;;;;;;13.37;10.80;;;;;;;3.89;76.54;94454.00;4975872;28;20236;-84
2021/11/29 10:07:36;;;;;;;13.47;10.30;;;;;;;3.90;76.66;94456.38;4977054;28;20715;-84
2021/11/29 10:10:12;;;;;;;12.07;10.57;;;;;;;4.03;76.15;94469.41;4976536;28;20208;-83
2021/11/29 10:12:40;;;;;;;12.30;9.60;;;;;;;3.93;74.63;94463.69;4976326;28;20216;-85
2021/11/29 10:15:18;;;;;;;10.80;9.60;;;;;;;4.00;75.67;94463.84;4976532;28;20598;-83
2021/11/29 10:17:46;;;;;;;11.27;9.67;;;;;;;3.94;74.96;94457.66;4976470;28;20204;-83
2021/11/29 10:20:14;;;;;;;15.30;12.90;;;;;;;3.78;74.97;94463.59;4977023;28;20232;-83
2021/11/29 10:22:55;;;;;;;11.77;10.57;;;;;;;3.82;75.88;94456.41;4986609;28;20220;-85
2021/11/29 10:25:22;;;;;;;11.07;9.87;;;;;;;3.99;74.91;94465.59;4976074;28;20351;-83
2021/11/29 10:27:48;;;;;;;10.83;9.67;;;;;;;3.96;74.50;94465.13;4974734;28;20243;-84
2021/11/29 10:30:17;;;;;;;10.40;9.33;;;;;;;4.06;74.86;94469.06;4975937;28;20649;-85
2021/11/29 10:32:46;;;;;;;11.37;9.80;;;;;;;4.10;75.08;94472.88;4974734;28;20270;-84
2021/11/29 10:35:21;;;;;;;11.90;10.40;;;;;;;4.04;75.87;94473.53;4975874;28;20200;-84
2021/11/29 10:37:49;;;;;;;10.60;9.10;;;;;;;3.95;74.63;94477.06;4975184;28;20209;-84
2021/11/29 10:40:19;;;;;;;10.57;9.23;;;;;;;3.89;74.75;94480.25;4974772;28;20223;-83
2021/11/29 10:42:46;;;;;;;12.07;10.23;;;;;;;3.81;74.89;94486.16;4974164;28;20278;-83
2021/11/29 10:45:21;;;;;;;10.63;9.53;;;;;;;3.68;76.24;94479.97;4975367;28;20208;-81
2021/11/29 10:47:49;;;;;;;11.10;9.30;;;;;;;3.73;75.79;94478.53;4975411;28;20244;-83
2021/11/29 10:50:17;;;;;;;11.17;9.17;;;;;;;3.86;76.33;94487.41;4974358;28;20247;-84
2021/11/29 10:52:46;;;;;;;10.93;9.30;;;;;;;3.81;75.47;94483.63;4974746;28;20227;-84
2021/11/29 10:55:13;;;;;;;13.00;9.53;;;;;;;3.85;74.36;94491.72;4974864;28;20200;-84
2021/11/29 10:57:46;;;;;;;10.07;9.00;;;;;;;4.04;74.56;94495.69;4975213;28;20204;-84
2021/11/29 11:00:16;;;;;;;11.33;9.73;;;;;;;4.16;74.26;94495.16;4973935;28;20235;-83
2021/11/29 11:03:00;;;;;;;11.83;10.37;;;;;;;4.06;73.76;94486.88;4975405;28;20428;-84
2021/11/29 11:05:28;;;;;;;10.57;9.47;;;;;;;4.11;73.63;94494.84;4973706;28;20234;-84
2021/11/29 11:08:08;;;;;;;17.53;14.33;;;;;;;4.04;75.17;94493.13;4975517;28;20972;-83
2021/11/29 11:10:35;;;;;;;12.17;10.60;;;;;;;4.02;74.07;94506.03;4972620;28;20282;-84
2021/11/29 11:13:02;;;;;;;11.27;10.07;;;;;;;3.81;74.46;94498.91;4973848;28;20224;-84
2021/11/29 11:15:31;;;;;;;13.20;11.43;;;;;;;3.86;74.65;94503.47;4974592;28;20200;-84
2021/11/29 11:17:58;;;;;;;12.87;10.97;;;;;;;3.94;75.03;94495.84;4974504;28;20200;-83
2021/11/29 11:20:25;;;;;;;13.70;11.93;;;;;;;3.85;75.13;94501.13;4975510;28;20260;-84
2021/11/29 11:22:55;;;;;;;13.53;11.20;;;;;;;3.91;74.83;94508.91;4984640;28;20380;-85
2021/11/29 11:25:24;;;;;;;12.87;11.50;;;;;;;3.89;74.66;94507.47;4974359;28;20270;-84
2021/11/29 11:27:57;;;;;;;12.17;10.87;;;;;;;3.93;74.84;94511.28;4974941;28;20200;-83
2021/11/29 11:30:25;;;;;;;13.60;10.90;;;;;;;3.79;74.60;94512.75;4974718;28;20231;-84